Time;durP1;ratioP1;P1;durP2;ratioP2;P2;SDS_P1;SDS_P2;PMS_P1;PMS_P2;Temp;Humidity;BMP_temperature;BMP_pressure;BME280_temperature;BME280_humidity;BME280_pressure;Samples;Min_cycle;Max_cycle;Signal;HPM_P1;HPM_P2
2022/10/22 00:02:08;;;;;;;3.15;1.00;;;;;;;;;;5017681;28;20157;-76
2022/10/22 00:04:55;;;;;;;5.63;1.92;;;;;;;;;;5016558;28;20079;-75
2022/10/22 00:07:40;;;;;;;1.50;0.80;;;;;;;;;;5015092;28;20025;-74
2022/10/22 00:10:26;;;;;;;3.08;1.23;;;;;;;;;;5031879;28;20041;-73
2022/10/22 00:13:11;;;;;;;2.88;0.82;;;;;;;;;;5011478;28;20262;-74
2022/10/22 00:15:57;;;;;;;1.55;0.73;;;;;;;;;;5030252;28;20449;-73
2022/10/22 00:18:42;;;;;;;2.00;0.93;;;;;;;;;;5029501;28;20025;-70
2022/10/22 00:21:29;;;;;;;3.90;1.05;;;;;;;;;;5030032;28;20113;-74
2022/10/22 00:24:14;;;;;;;3.47;0.88;;;;;;;;;;5015352;28;20033;-70
2022/10/22 00:27:00;;;;;;;4.43;0.90;;;;;;;;;;5028328;28;20526;-70
2022/10/22 00:29:45;;;;;;;2.13;1.10;;;;;;;;;;5013002;28;20052;-70
2022/10/22 00:32:30;;;;;;;8.25;1.20;;;;;;;;;;5027793;28;20065;-72
2022/10/22 00:35:15;;;;;;;3.47;0.68;;;;;;;;;;5025758;28;20094;-70
2022/10/22 00:38:01;;;;;;;2.10;0.60;;;;;;;;;;5034460;28;20033;-73
2022/10/22 00:40:46;;;;;;;1.80;0.80;;;;;;;;;;5021656;28;20035;-69
2022/10/22 00:43:31;;;;;;;3.42;1.00;;;;;;;;;;5021446;28;20079;-70
2022/10/22 00:46:16;;;;;;;4.70;0.90;;;;;;;;;;5032677;28;20113;-69
2022/10/22 00:49:02;;;;;;;3.17;0.95;;;;;;;;;;5035299;28;20675;-71
2022/10/22 00:51:47;;;;;;;2.13;0.90;;;;;;;;;;5034113;28;20037;-70
2022/10/22 00:54:33;;;;;;;2.47;0.80;;;;;;;;;;5031730;28;20119;-74
2022/10/22 00:57:18;;;;;;;0.60;0.60;;;;;;;;;;5030747;28;20066;-74
2022/10/22 01:00:04;;;;;;;4.43;1.10;;;;;;;;;;5030538;28;20435;-72
2022/10/22 01:02:50;;;;;;;1.77;0.80;;;;;;;;;;5033006;28;20035;-73
2022/10/22 01:05:43;;;;;;;5.38;1.48;;;;;;;;;;5032232;28;20674;-72
2022/10/22 01:08:45;;;;;;;4.03;0.93;;;;;;;;;;5032315;28;20491;-75
2022/10/22 01:11:33;;;;;;;3.65;1.35;;;;;;;;;;5020903;28;20123;-74
2022/10/22 01:14:43;;;;;;;4.47;0.90;;;;;;;;;;5034439;28;20040;-74
2022/10/22 01:17:28;;;;;;;4.45;0.88;;;;;;;;;;5035738;28;20032;-70
2022/10/22 01:20:23;;;;;;;0.80;0.80;;;;;;;;;;5030561;28;20041;-71
2022/10/22 01:23:08;;;;;;;4.13;0.80;;;;;;;;;;5028526;28;20534;-71
2022/10/22 01:26:15;;;;;;;3.05;0.93;;;;;;;;;;5033261;28;20543;-70
2022/10/22 01:29:00;;;;;;;21.00;1.52;;;;;;;;;;5020524;28;20712;-69
2022/10/22 01:31:49;;;;;;;4.15;0.85;;;;;;;;;;5032185;28;20035;-74
2022/10/22 01:34:37;;;;;;;3.03;1.20;;;;;;;;;;5032919;28;20040;-73
2022/10/22 01:37:24;;;;;;;1.10;0.70;;;;;;;;;;5031063;28;20033;-72
2022/10/22 01:40:10;;;;;;;2.10;0.80;;;;;;;;;;5033116;28;20110;-73
2022/10/22 01:43:00;;;;;;;1.25;0.90;;;;;;;;;;5033351;28;20032;-73
2022/10/22 01:45:47;;;;;;;9.32;1.13;;;;;;;;;;5031480;28;20080;-74
2022/10/22 01:48:45;;;;;;;1.08;0.80;;;;;;;;;;5018322;28;20037;-73
2022/10/22 01:51:48;;;;;;;3.42;0.70;;;;;;;;;;5036163;28;20028;-73
2022/10/22 01:54:37;;;;;;;1.60;0.82;;;;;;;;;;5031239;28;20033;-69
2022/10/22 01:57:27;;;;;;;2.28;0.70;;;;;;;;;;5031201;28;20392;-71
2022/10/22 02:00:13;;;;;;;2.72;0.90;;;;;;;;;;5031166;28;20112;-71
2022/10/22 02:03:08;;;;;;;1.75;0.80;;;;;;;;;;5019558;28;20365;-70
2022/10/22 02:05:56;;;;;;;1.92;0.60;;;;;;;;;;5032094;28;20036;-70
2022/10/22 02:08:42;;;;;;;2.65;0.95;;;;;;;;;;5030642;28;20099;-74
2022/10/22 02:11:27;;;;;;;4.63;1.35;;;;;;;;;;5020253;28;20029;-75
2022/10/22 02:14:13;;;;;;;3.83;0.95;;;;;;;;;;5019577;28;20032;-74
2022/10/22 02:16:58;;;;;;;3.35;0.85;;;;;;;;;;5018484;28;20175;-74
2022/10/22 02:19:51;;;;;;;2.25;0.80;;;;;;;;;;5018560;28;20526;-75
2022/10/22 02:22:37;;;;;;;2.15;0.90;;;;;;;;;;5017694;28;20039;-74
2022/10/22 02:25:23;;;;;;;1.30;0.65;;;;;;;;;;5033666;28;20037;-75
2022/10/22 02:28:11;;;;;;;4.95;1.25;;;;;;;;;;5018483;28;20033;-71
2022/10/22 02:31:03;;;;;;;7.50;0.90;;;;;;;;;;5026936;28;20392;-71
2022/10/22 02:33:50;;;;;;;2.25;0.65;;;;;;;;;;5032975;28;20033;-71
2022/10/22 02:36:40;;;;;;;3.42;1.13;;;;;;;;;;5031233;28;20121;-72
2022/10/22 02:39:26;;;;;;;0.73;0.60;;;;;;;;;;5030923;28;20033;-71
2022/10/22 02:42:11;;;;;;;2.40;0.80;;;;;;;;;;5033623;28;20373;-71
2022/10/22 02:44:56;;;;;;;3.20;1.25;;;;;;;;;;5032625;28;20029;-76
2022/10/22 02:47:42;;;;;;;1.45;0.70;;;;;;;;;;5032088;28;20036;-73
2022/10/22 02:50:27;;;;;;;1.08;0.60;;;;;;;;;;5031188;28;20124;-76
2022/10/22 02:53:12;;;;;;;7.75;1.48;;;;;;;;;;5032179;28;20029;-75
2022/10/22 02:55:58;;;;;;;2.97;0.70;;;;;;;;;;5017868;28;20032;-75
2022/10/22 02:58:43;;;;;;;4.15;1.08;;;;;;;;;;5015792;28;20021;-74
2022/10/22 03:01:28;;;;;;;1.85;0.80;;;;;;;;;;5027656;28;20043;-73
2022/10/22 03:04:14;;;;;;;0.95;0.50;;;;;;;;;;5032637;28;20044;-77
2022/10/22 03:06:59;;;;;;;2.20;0.70;;;;;;;;;;5031221;28;20440;-74
2022/10/22 03:09:44;;;;;;;2.80;0.70;;;;;;;;;;5016890;28;20460;-74
2022/10/22 03:12:30;;;;;;;1.02;0.80;;;;;;;;;;5033181;28;20036;-75
2022/10/22 03:15:15;;;;;;;2.70;1.35;;;;;;;;;;5016478;28;20039;-74
2022/10/22 03:18:00;;;;;;;6.03;0.80;;;;;;;;;;5031613;28;20492;-74
2022/10/22 03:20:45;;;;;;;2.70;0.82;;;;;;;;;;5030210;28;20029;-73
2022/10/22 03:23:31;;;;;;;0.80;0.73;;;;;;;;;;5017505;28;20052;-75
2022/10/22 03:26:17;;;;;;;3.92;0.85;;;;;;;;;;5014975;28;20029;-73
2022/10/22 03:29:03;;;;;;;3.35;1.13;;;;;;;;;;5017108;28;20064;-74
2022/10/22 03:31:48;;;;;;;1.10;0.70;;;;;;;;;;5028947;28;20112;-73
2022/10/22 03:34:33;;;;;;;6.45;0.90;;;;;;;;;;5030983;28;20412;-74
2022/10/22 03:37:19;;;;;;;5.50;1.20;;;;;;;;;;5030621;28;20044;-72
2022/10/22 03:40:05;;;;;;;1.95;0.65;;;;;;;;;;5031713;28;20028;-75
2022/10/22 03:42:50;;;;;;;7.28;1.05;;;;;;;;;;5014406;28;20040;-73
2022/10/22 03:45:35;;;;;;;1.00;0.70;;;;;;;;;;5030491;28;20033;-76
2022/10/22 03:48:20;;;;;;;3.92;0.95;;;;;;;;;;5029633;28;20135;-77
2022/10/22 03:51:06;;;;;;;1.45;0.60;;;;;;;;;;5030986;28;20120;-74
2022/10/22 03:53:51;;;;;;;7.60;1.75;;;;;;;;;;5031987;28;20111;-76
2022/10/22 03:56:36;;;;;;;5.50;0.95;;;;;;;;;;5030807;28;20179;-75
2022/10/22 03:59:21;;;;;;;3.05;0.90;;;;;;;;;;5030855;28;20617;-74
2022/10/22 04:02:07;;;;;;;4.03;1.00;;;;;;;;;;5030044;28;20022;-74
2022/10/22 04:04:52;;;;;;;1.23;0.70;;;;;;;;;;5032231;28;20690;-78
2022/10/22 04:07:37;;;;;;;4.65;0.70;;;;;;;;;;5010601;28;20111;-75
2022/10/22 04:10:22;;;;;;;2.60;0.80;;;;;;;;;;5031189;28;20037;-76
2022/10/22 04:13:08;;;;;;;1.58;0.80;;;;;;;;;;5031210;28;20243;-77
2022/10/22 04:15:53;;;;;;;1.10;0.70;;;;;;;;;;5031266;28;20017;-76
2022/10/22 04:18:39;;;;;;;2.38;0.80;;;;;;;;;;5028914;28;20032;-71
2022/10/22 04:21:24;;;;;;;1.83;0.80;;;;;;;;;;5030472;28;20040;-72
2022/10/22 04:24:09;;;;;;;4.75;0.90;;;;;;;;;;5029951;28;20032;-71
2022/10/22 04:26:54;;;;;;;2.10;0.70;;;;;;;;;;5028494;28;20125;-72
2022/10/22 04:29:40;;;;;;;3.85;0.90;;;;;;;;;;5025913;28;20028;-71
2022/10/22 04:32:26;;;;;;;6.68;0.70;;;;;;;;;;5041295;28;20123;-73
2022/10/22 04:35:11;;;;;;;4.10;1.05;;;;;;;;;;5026926;28;20124;-76
2022/10/22 04:37:56;;;;;;;3.22;0.90;;;;;;;;;;5030281;28;20539;-70
2022/10/22 04:40:41;;;;;;;2.40;0.60;;;;;;;;;;5017663;28;20033;-76
2022/10/22 04:43:27;;;;;;;0.80;0.80;;;;;;;;;;5031748;28;20021;-76
2022/10/22 04:46:12;;;;;;;1.63;0.90;;;;;;;;;;5028405;28;20052;-77
2022/10/22 04:48:58;;;;;;;0.93;0.60;;;;;;;;;;5043044;28;20040;-77
2022/10/22 04:51:43;;;;;;;4.35;2.00;;;;;;;;;;5028667;28;20029;-76
2022/10/22 04:54:28;;;;;;;3.85;0.70;;;;;;;;;;5030284;28;20035;-74
2022/10/22 04:57:13;;;;;;;4.72;0.60;;;;;;;;;;5016452;28;20035;-77
2022/10/22 04:59:59;;;;;;;2.63;0.75;;;;;;;;;;5029591;28;20024;-78
2022/10/22 05:02:47;;;;;;;4.18;0.90;;;;;;;;;;5017103;28;20033;-79
2022/10/22 05:05:32;;;;;;;0.98;0.70;;;;;;;;;;5023027;28;20052;-78
2022/10/22 05:08:18;;;;;;;2.50;1.17;;;;;;;;;;5013547;28;20037;-77
2022/10/22 05:11:16;;;;;;;2.50;1.00;;;;;;;;;;5016571;28;20025;-79
2022/10/22 05:14:03;;;;;;;2.40;0.50;;;;;;;;;;5021487;28;20021;-76
2022/10/22 05:16:48;;;;;;;3.25;1.02;;;;;;;;;;5025507;28;20065;-75
2022/10/22 05:19:33;;;;;;;1.20;0.70;;;;;;;;;;5015640;28;20372;-73
2022/10/22 05:22:19;;;;;;;1.75;1.02;;;;;;;;;;5015468;28;20128;-74
2022/10/22 05:25:04;;;;;;;2.63;0.82;;;;;;;;;;5032027;28;20361;-75
2022/10/22 05:27:49;;;;;;;4.28;1.00;;;;;;;;;;5032054;28;20571;-76
2022/10/22 05:30:35;;;;;;;2.70;0.82;;;;;;;;;;5016031;28;20036;-76
2022/10/22 05:33:21;;;;;;;1.13;0.80;;;;;;;;;;5034116;28;20517;-77
2022/10/22 05:36:07;;;;;;;1.45;0.90;;;;;;;;;;5033777;28;20075;-80
2022/10/22 05:38:52;;;;;;;3.28;1.15;;;;;;;;;;5020635;28;20529;-78
2022/10/22 05:41:38;;;;;;;11.65;1.23;;;;;;;;;;5020867;28;20422;-78
2022/10/22 05:44:23;;;;;;;5.93;1.00;;;;;;;;;;5022969;28;20049;-79
2022/10/22 05:47:08;;;;;;;1.83;0.80;;;;;;;;;;5035010;28;20032;-79
2022/10/22 05:49:56;;;;;;;2.22;0.70;;;;;;;;;;5011692;28;20090;-76
2022/10/22 05:52:41;;;;;;;7.43;1.60;;;;;;;;;;5030995;28;20131;-77
2022/10/22 05:55:26;;;;;;;2.65;1.10;;;;;;;;;;5033629;28;20040;-76
2022/10/22 05:58:11;;;;;;;4.20;0.90;;;;;;;;;;5033636;28;20032;-77
2022/10/22 06:01:01;;;;;;;1.02;0.70;;;;;;;;;;5031583;28;20043;-76
2022/10/22 06:03:46;;;;;;;8.52;1.35;;;;;;;;;;5032326;28;20083;-77
2022/10/22 06:06:32;;;;;;;3.30;1.10;;;;;;;;;;5031112;28;20123;-79
2022/10/22 06:09:23;;;;;;;2.33;0.95;;;;;;;;;;5031829;28;20033;-72
2022/10/22 06:12:11;;;;;;;2.83;1.00;;;;;;;;;;5032782;28;20195;-76
2022/10/22 06:14:56;;;;;;;5.60;1.27;;;;;;;;;;5033068;28;20067;-77
2022/10/22 06:17:43;;;;;;;3.17;1.10;;;;;;;;;;5033955;28;20037;-76
2022/10/22 06:20:28;;;;;;;2.38;1.00;;;;;;;;;;5036704;28;20025;-76
2022/10/22 06:23:14;;;;;;;2.30;1.02;;;;;;;;;;5032779;28;20487;-76
2022/10/22 06:25:59;;;;;;;5.32;1.10;;;;;;;;;;5035132;28;20039;-70
2022/10/22 06:28:44;;;;;;;5.50;1.77;;;;;;;;;;5018109;28;20500;-72
2022/10/22 06:31:35;;;;;;;4.70;0.90;;;;;;;;;;5031238;28;20036;-71
2022/10/22 06:34:20;;;;;;;3.13;1.13;;;;;;;;;;5030983;28;20186;-71
2022/10/22 06:37:06;;;;;;;4.45;1.20;;;;;;;;;;5020888;28;20060;-71
2022/10/22 06:39:51;;;;;;;3.53;0.98;;;;;;;;;;5019759;28;20033;-71
2022/10/22 06:42:36;;;;;;;3.90;1.60;;;;;;;;;;5033993;28;20040;-70
2022/10/22 06:45:21;;;;;;;3.60;1.15;;;;;;;;;;5034221;28;20037;-73
2022/10/22 06:48:07;;;;;;;1.67;0.90;;;;;;;;;;5018826;28;20040;-71
2022/10/22 06:50:52;;;;;;;3.22;1.05;;;;;;;;;;5020330;28;20111;-72
2022/10/22 06:53:38;;;;;;;4.53;1.00;;;;;;;;;;5017772;28;20040;-71
2022/10/22 06:56:24;;;;;;;2.20;1.05;;;;;;;;;;5032527;28;20044;-71
2022/10/22 06:59:09;;;;;;;3.47;1.05;;;;;;;;;;5032725;28;20036;-71
2022/10/22 07:01:55;;;;;;;1.55;0.90;;;;;;;;;;5031736;28;20094;-70
2022/10/22 07:04:40;;;;;;;1.77;1.00;;;;;;;;;;5018908;28;20017;-79
2022/10/22 07:07:25;;;;;;;5.32;1.27;;;;;;;;;;5020128;28;20037;-74
2022/10/22 07:10:10;;;;;;;7.43;1.33;;;;;;;;;;5033678;28;20028;-74
2022/10/22 07:12:56;;;;;;;3.95;1.05;;;;;;;;;;5032846;28;20059;-74
2022/10/22 07:15:41;;;;;;;3.95;1.23;;;;;;;;;;5018629;28;20102;-74
2022/10/22 07:18:27;;;;;;;8.65;1.38;;;;;;;;;;5018211;28;20037;-74
2022/10/22 07:21:13;;;;;;;3.60;1.10;;;;;;;;;;5030113;28;20028;-76
2022/10/22 07:23:58;;;;;;;4.43;1.20;;;;;;;;;;5035072;28;20028;-76
2022/10/22 07:26:43;;;;;;;5.28;1.20;;;;;;;;;;5030640;28;20020;-76
2022/10/22 07:29:28;;;;;;;9.32;2.28;;;;;;;;;;5029384;28;20041;-76
2022/10/22 07:32:14;;;;;;;1.10;0.80;;;;;;;;;;5032333;28;20491;-76
2022/10/22 07:34:59;;;;;;;6.80;1.20;;;;;;;;;;5033867;28;20075;-76
2022/10/22 07:37:44;;;;;;;7.45;1.02;;;;;;;;;;5022161;28;20467;-78
2022/10/22 07:40:29;;;;;;;3.55;1.00;;;;;;;;;;5035892;28;20166;-71
2022/10/22 07:43:15;;;;;;;3.85;1.23;;;;;;;;;;5032531;28;20104;-75
2022/10/22 07:46:01;;;;;;;6.63;1.63;;;;;;;;;;5032164;28;20028;-75
2022/10/22 07:48:46;;;;;;;3.92;1.20;;;;;;;;;;5017998;28;20029;-74
2022/10/22 07:51:32;;;;;;;6.57;1.20;;;;;;;;;;5017710;28;20605;-76
2022/10/22 07:54:18;;;;;;;2.13;1.00;;;;;;;;;;5030228;28;20029;-76
2022/10/22 07:57:03;;;;;;;1.75;1.10;;;;;;;;;;5038388;28;20060;-76
2022/10/22 07:59:48;;;;;;;3.75;1.50;;;;;;;;;;5030922;28;20075;-75
2022/10/22 08:02:33;;;;;;;2.95;1.02;;;;;;;;;;5012810;28;20098;-82
2022/10/22 08:05:19;;;;;;;4.30;1.35;;;;;;;;;;5016059;28;20033;-78
2022/10/22 08:08:05;;;;;;;6.63;1.10;;;;;;;;;;5010843;28;20027;-79
2022/10/22 08:10:51;;;;;;;8.38;1.60;;;;;;;;;;5032788;28;20027;-79
2022/10/22 08:13:37;;;;;;;2.40;1.20;;;;;;;;;;5026834;28;20491;-78
2022/10/22 08:16:22;;;;;;;3.17;0.95;;;;;;;;;;5033728;28;20064;-77
2022/10/22 08:19:07;;;;;;;5.05;1.70;;;;;;;;;;5017126;28;20103;-75
2022/10/22 08:21:53;;;;;;;3.47;1.20;;;;;;;;;;5033846;28;20768;-75
2022/10/22 08:24:38;;;;;;;1.75;0.98;;;;;;;;;;5019503;28;20043;-75
2022/10/22 08:27:23;;;;;;;5.05;1.25;;;;;;;;;;5032177;28;20087;-74
2022/10/22 08:30:09;;;;;;;4.18;1.48;;;;;;;;;;5046522;28;20028;-74
2022/10/22 08:32:54;;;;;;;4.60;1.15;;;;;;;;;;5033142;28;20029;-75
2022/10/22 08:35:39;;;;;;;7.32;1.52;;;;;;;;;;5027976;28;20112;-74
2022/10/22 08:38:25;;;;;;;2.33;1.30;;;;;;;;;;5018205;28;20246;-79
2022/10/22 08:41:28;;;;;;;6.20;1.13;;;;;;;;;;5019404;28;20521;-78
2022/10/22 08:44:29;;;;;;;4.38;1.00;;;;;;;;;;5030688;28;20029;-79
2022/10/22 08:47:28;;;;;;;2.05;0.90;;;;;;;;;;5032866;28;20040;-78
2022/10/22 08:50:16;;;;;;;2.70;0.85;;;;;;;;;;5032610;28;20061;-78
2022/10/22 08:53:04;;;;;;;3.20;1.50;;;;;;;;;;5005830;28;20652;-75
2022/10/22 08:55:52;;;;;;;6.68;1.27;;;;;;;;;;5014166;28;20484;-76
2022/10/22 08:58:41;;;;;;;4.65;1.48;;;;;;;;;;5035194;28;20091;-71
2022/10/22 09:01:36;;;;;;;5.47;0.95;;;;;;;;;;5029018;28;20072;-70
2022/10/22 09:04:35;;;;;;;5.53;1.05;;;;;;;;;;5036129;28;20495;-71
2022/10/22 09:07:20;;;;;;;1.05;0.77;;;;;;;;;;5036411;28;20043;-72
2022/10/22 09:10:08;;;;;;;4.85;0.90;;;;;;;;;;5034716;28;20048;-71
2022/10/22 09:12:53;;;;;;;2.65;0.80;;;;;;;;;;5036355;28;20711;-71
2022/10/22 09:15:38;;;;;;;2.03;0.90;;;;;;;;;;5036747;28;20033;-73
2022/10/22 09:18:24;;;;;;;6.30;1.20;;;;;;;;;;5022455;28;20048;-74
2022/10/22 09:21:29;;;;;;;1.02;0.77;;;;;;;;;;5035148;28;20029;-74
2022/10/22 09:24:27;;;;;;;3.03;1.17;;;;;;;;;;5033401;28;20037;-75
2022/10/22 09:27:18;;;;;;;2.33;1.50;;;;;;;;;;5036283;28;20053;-75
2022/10/22 09:30:03;;;;;;;6.85;1.00;;;;;;;;;;5036591;28;20029;-77
2022/10/22 09:32:50;;;;;;;3.67;1.23;;;;;;;;;;5033202;28;20029;-79
2022/10/22 09:35:56;;;;;;;5.07;1.05;;;;;;;;;;5022236;28;20032;-79
2022/10/22 09:38:46;;;;;;;5.97;1.13;;;;;;;;;;5022532;28;20064;-80
2022/10/22 09:41:31;;;;;;;3.60;1.05;;;;;;;;;;5033003;28;20017;-78
2022/10/22 09:44:17;;;;;;;3.22;1.15;;;;;;;;;;5036379;28;20033;-79
2022/10/22 09:47:04;;;;;;;2.40;0.98;;;;;;;;;;5034562;28;20032;-78
2022/10/22 09:50:02;;;;;;;6.03;1.33;;;;;;;;;;5035834;28;20043;-76
2022/10/22 09:53:04;;;;;;;3.65;1.20;;;;;;;;;;5034314;28;20036;-73
2022/10/22 09:55:57;;;;;;;3.90;1.02;;;;;;;;;;5036108;28;20028;-74
2022/10/22 09:58:43;;;;;;;4.30;0.85;;;;;;;;;;5035636;28;20106;-73
2022/10/22 10:01:33;;;;;;;2.97;1.30;;;;;;;;;;5023622;28;20039;-71
2022/10/22 10:04:18;;;;;;;2.25;0.68;;;;;;;;;;5036484;28;20084;-72
2022/10/22 10:07:13;;;;;;;2.65;0.80;;;;;;;;;;5035803;28;20098;-73
2022/10/22 10:09:58;;;;;;;1.30;0.85;;;;;;;;;;5035792;28;20122;-73
2022/10/22 10:12:55;;;;;;;5.80;1.00;;;;;;;;;;5034798;28;20040;-74
2022/10/22 10:15:48;;;;;;;5.15;0.75;;;;;;;;;;5035358;28;20095;-75
2022/10/22 10:18:52;;;;;;;5.10;1.40;;;;;;;;;;5017207;28;20114;-74
2022/10/22 10:21:58;;;;;;;6.18;1.30;;;;;;;;;;5033525;28;20035;-76
2022/10/22 10:24:43;;;;;;;4.28;1.48;;;;;;;;;;5028481;28;20033;-81
2022/10/22 10:28:07;;;;;;;6.60;1.30;;;;;;;;;;5019351;28;20119;-64
2022/10/22 10:30:52;;;;;;;3.70;1.48;;;;;;;;;;4966421;28;20023;-66
2022/10/22 10:33:52;;;;;;;5.30;1.17;;;;;;;;;;4973314;28;20501;-64
2022/10/22 10:36:50;;;;;;;4.20;1.23;;;;;;;;;;5028537;28;20049;-65
2022/10/22 10:39:55;;;;;;;2.80;1.42;;;;;;;;;;5032302;28;20086;-63
2022/10/22 10:42:43;;;;;;;2.17;1.00;;;;;;;;;;5034171;28;20045;-65
2022/10/22 10:45:37;;;;;;;3.08;0.95;;;;;;;;;;5032543;28;20126;-65
2022/10/22 10:48:28;;;;;;;1.77;1.20;;;;;;;;;;5033456;28;20120;-74
2022/10/22 10:51:13;;;;;;;5.53;1.13;;;;;;;;;;5040108;28;20093;-71
2022/10/22 10:54:10;;;;;;;2.50;1.10;;;;;;;;;;5026133;28;20029;-74
2022/10/22 10:56:56;;;;;;;4.15;0.95;;;;;;;;;;5033964;28;20028;-79
2022/10/22 11:00:00;;;;;;;4.53;1.10;;;;;;;;;;5026414;28;20041;-80
2022/10/22 11:03:04;;;;;;;4.63;1.00;;;;;;;;;;5034464;28;20041;-68
2022/10/22 11:05:56;;;;;;;4.75;1.00;;;;;;;;;;5033438;28;20550;-64
2022/10/22 11:08:53;;;;;;;2.65;1.00;;;;;;;;;;5033103;28;20479;-63
2022/10/22 11:11:59;;;;;;;5.72;1.17;;;;;;;;;;5034920;28;20105;-60
2022/10/22 11:14:57;;;;;;;1.27;0.90;;;;;;;;;;5033230;28;20040;-61
2022/10/22 11:17:45;;;;;;;6.37;1.70;;;;;;;;;;5035335;28;20075;-62
2022/10/22 11:20:36;;;;;;;3.17;1.40;;;;;;;;;;5031603;28;20350;-65
2022/10/22 11:23:43;;;;;;;3.70;1.10;;;;;;;;;;5031737;28;20775;-65
2022/10/22 11:26:34;;;;;;;3.15;1.30;;;;;;;;;;5034136;28;20922;-64
2022/10/22 11:29:23;;;;;;;3.47;0.90;;;;;;;;;;5033351;28;20127;-65
2022/10/22 11:32:17;;;;;;;3.35;0.90;;;;;;;;;;5029568;28;20491;-65
2022/10/22 11:35:03;;;;;;;4.82;1.50;;;;;;;;;;5025698;28;20395;-65
2022/10/22 11:37:50;;;;;;;5.47;1.08;;;;;;;;;;5033496;28;20025;-63
2022/10/22 11:40:36;;;;;;;5.90;1.83;;;;;;;;;;5033141;28;20083;-67
2022/10/22 11:43:26;;;;;;;3.75;1.20;;;;;;;;;;5034645;28;20041;-80
2022/10/22 11:46:14;;;;;;;3.85;1.00;;;;;;;;;;5033844;28;20357;-77
2022/10/22 11:49:13;;;;;;;6.38;1.00;;;;;;;;;;5033226;28;20127;-76
2022/10/22 11:52:19;;;;;;;2.83;1.00;;;;;;;;;;5026964;28;20384;-76
2022/10/22 11:55:24;;;;;;;4.88;1.15;;;;;;;;;;5009309;28;20044;-70
2022/10/22 11:58:25;;;;;;;5.38;1.30;;;;;;;;;;5029299;28;20464;-74
2022/10/22 12:01:10;;;;;;;4.03;1.33;;;;;;;;;;5030279;28;20029;-63
2022/10/22 12:03:58;;;;;;;2.03;0.88;;;;;;;;;;5030889;28;20083;-64
2022/10/22 12:06:54;;;;;;;2.60;1.02;;;;;;;;;;5029566;28;20028;-61
2022/10/22 12:09:39;;;;;;;6.53;1.67;;;;;;;;;;5030408;28;20028;-64
2022/10/22 12:12:27;;;;;;;6.40;1.55;;;;;;;;;;5030353;28;20524;-67
2022/10/22 12:15:24;;;;;;;3.72;1.25;;;;;;;;;;5029612;28;20029;-72
2022/10/22 12:18:11;;;;;;;8.05;1.45;;;;;;;;;;5029955;28;20039;-70
2022/10/22 12:20:56;;;;;;;6.97;1.58;;;;;;;;;;5031356;28;20037;-62
2022/10/22 12:23:43;;;;;;;4.25;1.20;;;;;;;;;;5030387;28;20475;-62
2022/10/22 12:26:29;;;;;;;6.72;1.50;;;;;;;;;;5015615;28;20364;-61
2022/10/22 12:29:15;;;;;;;9.15;1.20;;;;;;;;;;5031926;28;20037;-63
2022/10/22 12:32:04;;;;;;;10.20;1.50;;;;;;;;;;5033209;28;20078;-62
2022/10/22 12:34:51;;;;;;;4.70;1.25;;;;;;;;;;5025875;28;20024;-63
2022/10/22 12:37:37;;;;;;;5.80;1.70;;;;;;;;;;5027470;28;20114;-64
2022/10/22 12:40:22;;;;;;;8.23;1.52;;;;;;;;;;5010147;28;20059;-63
2022/10/22 12:43:12;;;;;;;11.73;1.60;;;;;;;;;;5031579;28;20043;-62
2022/10/22 12:45:58;;;;;;;5.32;1.30;;;;;;;;;;5031239;28;20404;-63
2022/10/22 12:48:44;;;;;;;3.70;1.50;;;;;;;;;;5028559;28;20037;-64
2022/10/22 12:51:29;;;;;;;20.13;12.77;;;;;;;;;;5031856;28;20048;-68
2022/10/22 12:54:28;;;;;;;13.43;6.68;;;;;;;;;;5026859;28;20040;-66
2022/10/22 12:57:17;;;;;;;7.18;2.40;;;;;;;;;;5014166;28;20494;-64
2022/10/22 13:00:02;;;;;;;3.78;1.20;;;;;;;;;;5024709;28;20064;-72
2022/10/22 13:02:48;;;;;;;7.38;1.60;;;;;;;;;;5029448;28;20036;-68
2022/10/22 13:05:37;;;;;;;8.27;1.35;;;;;;;;;;5029312;28;20041;-68
2022/10/22 13:08:26;;;;;;;11.05;1.92;;;;;;;;;;5035451;28;20384;-67
2022/10/22 13:11:11;;;;;;;7.33;1.40;;;;;;;;;;5028705;28;20120;-71
2022/10/22 13:14:00;;;;;;;4.07;1.20;;;;;;;;;;5027680;28;20108;-78
2022/10/22 13:17:04;;;;;;;51.25;40.90;;;;;;;;;;5030519;28;20071;-74
2022/10/22 13:19:53;;;;;;;5.40;2.70;;;;;;;;;;5029270;28;20028;-79
2022/10/22 13:22:39;;;;;;;5.83;1.60;;;;;;;;;;5027378;28;20095;-73
2022/10/22 13:25:35;;;;;;;5.78;1.63;;;;;;;;;;5030148;28;20072;-72
2022/10/22 13:28:20;;;;;;;8.07;1.60;;;;;;;;;;5031618;28;20025;-78
2022/10/22 13:31:21;;;;;;;3.28;1.35;;;;;;;;;;5028547;28;20537;-78
2022/10/22 13:34:14;;;;;;;5.75;1.40;;;;;;;;;;5028095;28;20721;-67
2022/10/22 13:36:59;;;;;;;3.80;1.52;;;;;;;;;;5029710;28;20082;-69
2022/10/22 13:39:45;;;;;;;11.30;1.50;;;;;;;;;;5027971;28;20029;-70
2022/10/22 13:42:30;;;;;;;6.22;1.38;;;;;;;;;;5031027;28;20025;-71
2022/10/22 13:45:16;;;;;;;6.18;1.60;;;;;;;;;;5033221;28;20071;-68
2022/10/22 13:48:01;;;;;;;7.38;1.80;;;;;;;;;;5033210;28;20033;-67
2022/10/22 13:50:47;;;;;;;4.50;1.25;;;;;;;;;;5032093;28;20444;-74
2022/10/22 13:53:32;;;;;;;5.90;1.15;;;;;;;;;;5034242;28;20037;-74
2022/10/22 13:56:19;;;;;;;10.02;1.88;;;;;;;;;;5035031;28;20101;-74
2022/10/22 13:59:04;;;;;;;7.63;1.77;;;;;;;;;;5028541;28;20499;-75
2022/10/22 14:01:49;;;;;;;12.20;2.42;;;;;;;;;;5034624;28;20052;-76
2022/10/22 14:04:36;;;;;;;7.05;1.77;;;;;;;;;;5032970;28;20037;-76
2022/10/22 14:07:21;;;;;;;8.40;1.48;;;;;;;;;;5032074;28;20036;-60
2022/10/22 14:10:20;;;;;;;5.40;1.95;;;;;;;;;;5036803;28;20029;-77
2022/10/22 14:13:06;;;;;;;4.22;1.20;;;;;;;;;;5031981;28;20107;-77
2022/10/22 14:15:51;;;;;;;4.43;1.70;;;;;;;;;;5031769;28;20079;-74
2022/10/22 14:18:36;;;;;;;12.98;2.25;;;;;;;;;;5032648;28;20037;-77
2022/10/22 14:21:22;;;;;;;7.57;1.58;;;;;;;;;;5030317;28;20028;-80
2022/10/22 14:24:08;;;;;;;7.07;1.38;;;;;;;;;;5034304;28;20106;-61
2022/10/22 14:26:53;;;;;;;6.10;1.60;;;;;;;;;;5018862;28;20029;-67
2022/10/22 14:29:39;;;;;;;7.35;1.77;;;;;;;;;;5031994;28;20029;-61
2022/10/22 14:32:26;;;;;;;14.68;2.08;;;;;;;;;;5033730;28;20028;-62
2022/10/22 14:35:13;;;;;;;14.40;1.63;;;;;;;;;;5033042;28;20040;-64
2022/10/22 14:37:58;;;;;;;7.80;2.15;;;;;;;;;;5034733;28;20076;-62
2022/10/22 14:40:43;;;;;;;7.50;1.60;;;;;;;;;;5035956;28;20541;-66
2022/10/22 14:43:29;;;;;;;4.43;1.70;;;;;;;;;;5034678;28;20036;-66
2022/10/22 14:46:15;;;;;;;8.13;2.05;;;;;;;;;;5030518;28;20036;-65
2022/10/22 14:49:01;;;;;;;12.32;2.75;;;;;;;;;;5032943;28;20032;-64
2022/10/22 14:51:46;;;;;;;9.20;1.80;;;;;;;;;;5034177;28;20043;-63
2022/10/22 14:54:32;;;;;;;6.20;1.23;;;;;;;;;;5032937;28;20654;-62
2022/10/22 14:57:17;;;;;;;8.90;1.65;;;;;;;;;;5029703;28;20044;-67
2022/10/22 15:00:03;;;;;;;9.65;1.63;;;;;;;;;;5032298;28;20082;-64
2022/10/22 15:02:48;;;;;;;7.65;1.73;;;;;;;;;;5028593;28;20036;-72
2022/10/22 15:05:35;;;;;;;7.22;1.70;;;;;;;;;;5017141;28;20036;-69
2022/10/22 15:08:20;;;;;;;5.85;1.70;;;;;;;;;;5041143;28;20514;-70
2022/10/22 15:11:11;;;;;;;12.45;3.47;;;;;;;;;;5031849;28;20028;-76
2022/10/22 15:13:58;;;;;;;21.73;2.03;;;;;;;;;;5030705;28;20024;-75
2022/10/22 15:16:46;;;;;;;6.95;2.00;;;;;;;;;;4996300;28;20059;-73
2022/10/22 15:19:32;;;;;;;6.45;1.50;;;;;;;;;;5000281;28;20041;-70
2022/10/22 15:22:18;;;;;;;4.72;2.00;;;;;;;;;;5031190;28;20075;-66
2022/10/22 15:25:09;;;;;;;7.53;2.30;;;;;;;;;;5031237;28;20037;-67
2022/10/22 15:27:54;;;;;;;6.80;2.10;;;;;;;;;;5030929;28;20055;-69
2022/10/22 15:30:39;;;;;;;10.13;2.97;;;;;;;;;;5029317;28;20033;-67
2022/10/22 15:33:25;;;;;;;10.18;1.98;;;;;;;;;;5028968;28;20031;-73
2022/10/22 15:36:12;;;;;;;11.82;2.28;;;;;;;;;;5014686;28;20140;-72
2022/10/22 15:38:57;;;;;;;9.30;1.70;;;;;;;;;;5017872;28;20517;-77
2022/10/22 15:41:42;;;;;;;10.07;3.33;;;;;;;;;;5034144;28;20079;-75
2022/10/22 15:44:29;;;;;;;15.98;2.35;;;;;;;;;;5030680;28;20056;-74
2022/10/22 15:47:14;;;;;;;9.90;2.65;;;;;;;;;;5034085;28;20056;-77
2022/10/22 15:49:59;;;;;;;5.72;2.00;;;;;;;;;;5031676;28;20033;-72
2022/10/22 15:52:45;;;;;;;14.20;2.10;;;;;;;;;;5034414;28;20037;-73
2022/10/22 15:55:30;;;;;;;12.55;2.08;;;;;;;;;;5019581;28;20472;-75
2022/10/22 15:58:15;;;;;;;6.13;1.80;;;;;;;;;;5026623;28;20052;-77
2022/10/22 16:01:08;;;;;;;7.97;2.83;;;;;;;;;;5012669;28;20492;-77
2022/10/22 16:04:01;;;;;;;15.35;4.80;;;;;;;;;;5028970;28;20029;-79
2022/10/22 16:06:48;;;;;;;21.63;9.65;;;;;;;;;;5029783;28;20035;-78
2022/10/22 16:09:33;;;;;;;42.08;9.48;;;;;;;;;;5028763;28;20033;-77
2022/10/22 16:12:18;;;;;;;17.17;6.70;;;;;;;;;;5019430;28;20051;-75
2022/10/22 16:15:03;;;;;;;13.68;5.10;;;;;;;;;;5012592;28;20032;-75
2022/10/22 16:17:50;;;;;;;17.55;4.18;;;;;;;;;;5030814;28;20554;-76
2022/10/22 16:20:39;;;;;;;13.70;3.30;;;;;;;;;;5031465;28;20496;-78
2022/10/22 16:23:24;;;;;;;12.85;4.32;;;;;;;;;;5030313;28;20028;-77
2022/10/22 16:26:10;;;;;;;14.90;4.05;;;;;;;;;;5030357;28;20411;-79
2022/10/22 16:28:57;;;;;;;11.43;4.50;;;;;;;;;;5030938;28;20105;-79
2022/10/22 16:31:42;;;;;;;12.88;5.53;;;;;;;;;;5019945;28;20431;-76
2022/10/22 16:34:28;;;;;;;14.15;6.10;;;;;;;;;;5030715;28;20546;-76
2022/10/22 16:37:13;;;;;;;13.30;7.05;;;;;;;;;;5039039;28;20025;-77
2022/10/22 16:39:58;;;;;;;13.02;5.90;;;;;;;;;;5046448;28;20033;-76
2022/10/22 16:42:43;;;;;;;14.88;5.75;;;;;;;;;;5029296;28;20052;-76
2022/10/22 16:45:29;;;;;;;8.10;3.78;;;;;;;;;;5031773;28;20296;-74